Time;durP1;ratioP1;P1;durP2;ratioP2;P2;SDS_P1;SDS_P2;PMS_P1;PMS_P2;Temp;Humidity;BMP_temperature;BMP_pressure;BME280_temperature;BME280_humidity;BME280_pressure;Samples;Min_cycle;Max_cycle;Signal;HPM_P1;HPM_P2
2024/01/30 00:00:58;;;;;;;;;;;6.40;99.90;;;;;;5093156;28;19920;-33
2024/01/30 00:03:24;;;;;;;;;;;6.30;99.90;;;;;;5090490;28;19950;-35
2024/01/30 00:05:51;;;;;;;;;;;6.30;99.90;;;;;;5094093;28;19919;-33
2024/01/30 00:08:19;;;;;;;;;;;6.30;99.90;;;;;;5116068;28;19952;-32
2024/01/30 00:10:45;;;;;;;;;;;6.40;99.90;;;;;;5095037;28;19920;-33
2024/01/30 00:13:13;;;;;;;;;;;6.40;99.90;;;;;;5098447;28;19985;-34
2024/01/30 00:15:40;;;;;;;;;;;6.50;99.90;;;;;;5093301;28;19919;-33
2024/01/30 00:18:07;;;;;;;;;;;6.40;99.90;;;;;;5116080;28;19923;-34
2024/01/30 00:20:33;;;;;;;;;;;6.40;99.90;;;;;;5116664;28;19973;-32
2024/01/30 00:23:00;;;;;;;;;;;6.40;99.90;;;;;;5098146;28;19963;-33
2024/01/30 00:25:28;;;;;;;;;;;6.40;99.90;;;;;;5098638;28;19919;-33
2024/01/30 00:27:55;;;;;;;;;;;6.40;99.90;;;;;;5098320;28;19919;-32
2024/01/30 00:30:21;;;;;;;;;;;6.50;99.90;;;;;;5095320;28;19942;-31
2024/01/30 00:32:48;;;;;;;;;;;6.50;99.90;;;;;;5107568;28;20368;-32
2024/01/30 00:35:14;;;;;;;;;;;6.50;99.90;;;;;;5097412;28;19949;-32
2024/01/30 00:37:41;;;;;;;;;;;6.40;99.90;;;;;;5089826;28;19969;-31
2024/01/30 00:40:10;;;;;;;;;;;6.50;99.90;;;;;;5103162;28;19927;-31
2024/01/30 00:42:38;;;;;;;;;;;6.50;99.90;;;;;;5098057;28;19919;-32
2024/01/30 00:45:06;;;;;;;;;;;6.50;99.90;;;;;;5097498;28;19932;-32
2024/01/30 00:47:33;;;;;;;;;;;6.40;99.90;;;;;;5098148;28;19923;-32
2024/01/30 00:49:59;;;;;;;;;;;6.40;99.90;;;;;;5096502;28;19919;-31
2024/01/30 00:52:26;;;;;;;;;;;6.40;99.90;;;;;;5097662;28;19919;-32
2024/01/30 00:54:52;;;;;;;;;;;6.40;99.90;;;;;;5113323;28;20454;-33
2024/01/30 00:57:18;;;;;;;;;;;6.30;99.90;;;;;;5097679;28;20008;-31
2024/01/30 00:59:46;;;;;;;;;;;6.40;99.90;;;;;;5115131;28;19973;-33
2024/01/30 01:02:15;;;;;;;;;;;6.40;99.90;;;;;;5097508;28;19924;-33
2024/01/30 01:04:41;;;;;;;;;;;6.40;99.90;;;;;;5096934;28;20022;-32
2024/01/30 01:07:08;;;;;;;;;;;6.30;99.90;;;;;;5096632;28;19920;-33
2024/01/30 01:09:34;;;;;;;;;;;6.30;99.90;;;;;;5095628;28;19993;-33
2024/01/30 01:12:01;;;;;;;;;;;6.30;99.90;;;;;;5097980;28;19926;-34
2024/01/30 01:14:28;;;;;;;;;;;6.30;99.90;;;;;;5097570;28;19973;-33
2024/01/30 01:16:56;;;;;;;;;;;6.30;99.90;;;;;;5110075;28;20256;-33
2024/01/30 01:19:22;;;;;;;;;;;6.30;99.90;;;;;;5080723;28;20379;-33
2024/01/30 01:21:49;;;;;;;;;;;6.30;99.90;;;;;;5115325;28;19965;-32
2024/01/30 01:24:15;;;;;;;;;;;6.30;99.90;;;;;;5084646;28;19920;-32
2024/01/30 01:26:42;;;;;;;;;;;6.30;99.90;;;;;;5111423;28;19919;-34
2024/01/30 01:29:11;;;;;;;;;;;6.30;99.90;;;;;;5096673;28;19965;-33
2024/01/30 01:31:43;;;;;;;;;;;6.40;99.90;;;;;;5092786;28;19966;-32
2024/01/30 01:34:11;;;;;;;;;;;6.40;99.90;;;;;;5097006;28;19926;-31
2024/01/30 01:36:37;;;;;;;;;;;6.30;99.90;;;;;;5114659;28;20321;-33
2024/01/30 01:39:04;;;;;;;;;;;6.40;99.90;;;;;;5083476;28;20363;-33
2024/01/30 01:41:31;;;;;;;;;;;6.40;99.90;;;;;;5113412;28;20360;-33
2024/01/30 01:43:58;;;;;;;;;;;6.30;99.90;;;;;;5115267;28;19919;-33
2024/01/30 01:46:27;;;;;;;;;;;6.40;99.90;;;;;;5096086;28;19970;-32
2024/01/30 01:48:53;;;;;;;;;;;6.40;99.90;;;;;;5114543;28;19976;-32
2024/01/30 01:51:21;;;;;;;;;;;6.40;99.90;;;;;;5095742;28;20012;-33
2024/01/30 01:53:48;;;;;;;;;;;6.40;99.90;;;;;;5115012;28;19977;-33
2024/01/30 01:56:14;;;;;;;;;;;6.40;99.90;;;;;;5092437;28;19981;-31
2024/01/30 01:58:41;;;;;;;;;;;6.40;99.90;;;;;;5114452;28;20443;-33
2024/01/30 02:01:09;;;;;;;;;;;6.30;99.90;;;;;;5093266;28;20425;-33
2024/01/30 02:03:35;;;;;;;;;;;6.40;99.90;;;;;;5073886;28;19924;-34
2024/01/30 02:06:02;;;;;;;;;;;6.30;99.90;;;;;;5066609;28;19985;-33
2024/01/30 02:08:30;;;;;;;;;;;6.30;99.90;;;;;;5076360;28;20020;-33
2024/01/30 02:10:56;;;;;;;;;;;6.30;99.90;;;;;;5061631;28;19921;-32
2024/01/30 02:13:23;;;;;;;;;;;6.40;99.90;;;;;;5102647;28;20465;-33
2024/01/30 02:15:50;;;;;;;;;;;6.30;99.90;;;;;;5076452;28;19973;-33
2024/01/30 02:18:17;;;;;;;;;;;6.30;99.90;;;;;;5076060;28;19926;-32
2024/01/30 02:20:43;;;;;;;;;;;6.30;99.90;;;;;;5073933;28;19977;-32
2024/01/30 02:23:11;;;;;;;;;;;6.30;99.90;;;;;;5088091;28;20419;-33
2024/01/30 02:25:43;;;;;;;;;;;6.20;99.90;;;;;;5096147;28;19949;-32
2024/01/30 02:28:10;;;;;;;;;;;6.20;99.90;;;;;;5085013;28;20300;-34
2024/01/30 02:30:37;;;;;;;;;;;6.20;99.90;;;;;;5056028;28;19970;-32
2024/01/30 02:33:03;;;;;;;;;;;6.20;99.90;;;;;;5091744;28;19924;-33
2024/01/30 02:35:30;;;;;;;;;;;6.20;99.90;;;;;;5075248;28;20405;-32
2024/01/30 02:37:57;;;;;;;;;;;6.20;99.90;;;;;;5098910;28;20000;-32
2024/01/30 02:40:25;;;;;;;;;;;6.20;99.90;;;;;;5093630;28;19963;-32
2024/01/30 02:42:51;;;;;;;;;;;6.20;99.90;;;;;;5068266;28;19977;-33
2024/01/30 02:45:18;;;;;;;;;;;6.20;99.90;;;;;;5072975;28;19958;-32
2024/01/30 02:47:45;;;;;;;;;;;6.20;99.90;;;;;;5074914;28;19920;-32
2024/01/30 02:50:11;;;;;;;;;;;6.10;99.90;;;;;;5077463;28;19920;-32
2024/01/30 02:52:38;;;;;;;;;;;6.10;99.90;;;;;;5095395;28;19950;-32
2024/01/30 02:55:05;;;;;;;;;;;6.10;99.90;;;;;;5093437;28;19989;-33
2024/01/30 02:57:34;;;;;;;;;;;6.10;99.90;;;;;;5074361;28;19973;-33
2024/01/30 03:00:00;;;;;;;;;;;6.10;99.90;;;;;;5085650;28;19919;-32
2024/01/30 03:02:27;;;;;;;;;;;6.10;99.90;;;;;;5095616;28;20438;-32
2024/01/30 03:04:54;;;;;;;;;;;6.10;99.90;;;;;;5094527;28;20415;-31
2024/01/30 03:07:20;;;;;;;;;;;6.10;99.90;;;;;;5094895;28;20348;-34
2024/01/30 03:09:48;;;;;;;;;;;6.10;99.90;;;;;;5095684;28;19955;-33
2024/01/30 03:12:14;;;;;;;;;;;6.10;99.90;;;;;;5095371;28;20373;-32
2024/01/30 03:14:42;;;;;;;;;;;6.00;99.90;;;;;;5102821;28;19964;-33
2024/01/30 03:17:09;;;;;;;;;;;6.10;99.90;;;;;;5082239;28;19969;-33
2024/01/30 03:19:36;;;;;;;;;;;6.10;99.90;;;;;;5111726;28;19927;-33
2024/01/30 03:22:02;;;;;;;;;;;6.00;99.90;;;;;;5088184;28;19924;-32
2024/01/30 03:24:29;;;;;;;;;;;6.10;99.90;;;;;;5092962;28;20322;-32
2024/01/30 03:26:55;;;;;;;;;;;6.10;99.90;;;;;;5074889;28;19920;-32
2024/01/30 03:29:22;;;;;;;;;;;6.00;99.90;;;;;;5092985;28;19988;-33
2024/01/30 03:31:49;;;;;;;;;;;6.10;99.90;;;;;;5094900;28;20360;-33
2024/01/30 03:34:16;;;;;;;;;;;6.10;99.90;;;;;;5112908;28;19926;-32
2024/01/30 03:36:43;;;;;;;;;;;6.10;99.90;;;;;;5083177;28;19920;-33
2024/01/30 03:39:09;;;;;;;;;;;6.10;99.90;;;;;;5092051;28;19920;-32
2024/01/30 03:41:36;;;;;;;;;;;6.10;99.90;;;;;;5111152;28;19973;-33
2024/01/30 03:44:02;;;;;;;;;;;6.10;99.90;;;;;;5111437;28;19924;-32
2024/01/30 03:46:29;;;;;;;;;;;6.10;99.90;;;;;;5077748;28;20465;-32
2024/01/30 03:48:57;;;;;;;;;;;6.00;99.90;;;;;;5089523;28;19920;-32
2024/01/30 03:51:24;;;;;;;;;;;6.20;99.90;;;;;;5095175;28;19972;-32
2024/01/30 03:53:50;;;;;;;;;;;6.20;99.90;;;;;;5112317;28;20313;-31
2024/01/30 03:56:17;;;;;;;;;;;6.20;99.90;;;;;;5094735;28;19919;-32
2024/01/30 03:58:44;;;;;;;;;;;6.20;99.90;;;;;;5094052;28;19980;-32
2024/01/30 04:01:13;;;;;;;;;;;6.20;99.90;;;;;;5104557;28;19966;-32
2024/01/30 04:03:40;;;;;;;;;;;6.20;99.90;;;;;;5074325;28;19920;-32
2024/01/30 04:06:08;;;;;;;;;;;6.30;99.90;;;;;;5074517;28;19960;-33
2024/01/30 04:08:35;;;;;;;;;;;6.30;99.90;;;;;;5103733;28;20000;-32
2024/01/30 04:11:03;;;;;;;;;;;6.40;99.90;;;;;;5111537;28;20445;-31
2024/01/30 04:13:30;;;;;;;;;;;6.30;99.90;;;;;;5093358;28;20355;-33
2024/01/30 04:15:57;;;;;;;;;;;6.40;99.90;;;;;;5094718;28;19924;-31
2024/01/30 04:18:23;;;;;;;;;;;6.40;99.90;;;;;;5105386;28;19920;-31
2024/01/30 04:20:50;;;;;;;;;;;6.50;99.90;;;;;;5090309;28;20044;-34
2024/01/30 04:23:18;;;;;;;;;;;6.50;99.90;;;;;;5112644;28;19993;-33
2024/01/30 04:25:45;;;;;;;;;;;6.50;99.90;;;;;;5088418;28;19958;-34
2024/01/30 04:28:11;;;;;;;;;;;6.60;99.90;;;;;;5084459;28;20315;-34
2024/01/30 04:30:38;;;;;;;;;;;6.60;99.90;;;;;;5095739;28;19920;-33
2024/01/30 04:33:05;;;;;;;;;;;6.70;99.90;;;;;;5080400;28;19924;-32
2024/01/30 04:35:31;;;;;;;;;;;6.60;99.90;;;;;;5095171;28;19972;-33
2024/01/30 04:37:58;;;;;;;;;;;6.70;99.90;;;;;;5091370;28;20383;-31
2024/01/30 04:40:26;;;;;;;;;;;6.70;99.90;;;;;;5088372;28;19947;-32
2024/01/30 04:42:53;;;;;;;;;;;6.70;99.90;;;;;;5109631;28;19924;-32
2024/01/30 04:45:19;;;;;;;;;;;6.80;99.90;;;;;;5097388;28;20420;-32
2024/01/30 04:47:46;;;;;;;;;;;6.80;99.90;;;;;;5097247;28;19973;-32
2024/01/30 04:50:13;;;;;;;;;;;6.80;99.90;;;;;;5086458;28;19984;-33
2024/01/30 04:52:39;;;;;;;;;;;6.80;99.90;;;;;;5097518;28;20360;-34
2024/01/30 04:55:07;;;;;;;;;;;6.80;99.90;;;;;;5115859;28;19919;-32
2024/01/30 04:57:34;;;;;;;;;;;6.80;99.90;;;;;;5097468;28;19965;-32
2024/01/30 05:00:01;;;;;;;;;;;6.90;99.90;;;;;;5093640;28;19920;-32
2024/01/30 05:02:28;;;;;;;;;;;6.80;99.90;;;;;;5109486;28;19928;-33
2024/01/30 05:04:54;;;;;;;;;;;6.90;99.90;;;;;;5095374;28;19969;-31
2024/01/30 05:07:21;;;;;;;;;;;6.90;99.90;;;;;;5093970;28;20423;-31
2024/01/30 05:09:48;;;;;;;;;;;6.80;99.90;;;;;;5096594;28;19928;-31
2024/01/30 05:12:14;;;;;;;;;;;7.00;99.90;;;;;;5097523;28;19977;-31
2024/01/30 05:14:42;;;;;;;;;;;6.90;99.90;;;;;;5115472;28;20032;-30
2024/01/30 05:17:10;;;;;;;;;;;6.90;99.90;;;;;;5096300;28;20024;-32
2024/01/30 05:19:36;;;;;;;;;;;6.90;99.90;;;;;;5113393;28;19950;-32
2024/01/30 05:22:03;;;;;;;;;;;6.90;99.90;;;;;;5093791;28;19920;-33
2024/01/30 05:24:29;;;;;;;;;;;7.00;99.90;;;;;;5114283;28;20371;-31
2024/01/30 05:26:56;;;;;;;;;;;7.00;99.90;;;;;;5095307;28;20351;-32
2024/01/30 05:29:23;;;;;;;;;;;7.00;99.90;;;;;;5112217;28;19985;-31
2024/01/30 05:31:51;;;;;;;;;;;6.90;99.90;;;;;;5094826;28;19924;-31
2024/01/30 05:34:18;;;;;;;;;;;6.90;99.90;;;;;;5076760;28;19989;-31
2024/01/30 05:36:44;;;;;;;;;;;7.00;99.90;;;;;;5086855;28;19982;-32
2024/01/30 05:39:11;;;;;;;;;;;7.00;99.90;;;;;;5076710;28;19920;-32
2024/01/30 05:41:38;;;;;;;;;;;7.00;99.90;;;;;;5094628;28;19920;-32
2024/01/30 05:44:04;;;;;;;;;;;7.00;99.90;;;;;;5091661;28;19974;-32
2024/01/30 05:46:31;;;;;;;;;;;7.00;99.90;;;;;;5115005;28;19919;-32
2024/01/30 05:48:59;;;;;;;;;;;7.10;99.90;;;;;;5096101;28;19920;-32
2024/01/30 05:51:26;;;;;;;;;;;7.20;99.90;;;;;;5091138;28;19973;-32
2024/01/30 05:53:52;;;;;;;;;;;7.10;99.90;;;;;;5091507;28;19973;-33
2024/01/30 05:56:19;;;;;;;;;;;7.10;99.90;;;;;;5094591;28;19919;-32
2024/01/30 05:58:45;;;;;;;;;;;7.20;99.90;;;;;;5094912;28;20464;-33
2024/01/30 06:01:12;;;;;;;;;;;7.20;99.90;;;;;;5087502;28;19967;-32
2024/01/30 06:03:39;;;;;;;;;;;7.20;99.90;;;;;;5094660;28;19967;-32
2024/01/30 06:06:07;;;;;;;;;;;7.10;99.90;;;;;;5112493;28;20256;-32
2024/01/30 06:08:34;;;;;;;;;;;7.20;99.90;;;;;;5096690;28;19969;-34
2024/01/30 06:11:00;;;;;;;;;;;7.20;99.90;;;;;;5112478;28;19977;-32
2024/01/30 06:13:27;;;;;;;;;;;7.10;99.90;;;;;;5096547;28;20280;-33
2024/01/30 06:15:54;;;;;;;;;;;7.10;99.90;;;;;;5112577;28;20363;-33
2024/01/30 06:18:20;;;;;;;;;;;7.10;99.90;;;;;;5113496;28;20370;-32
2024/01/30 06:20:47;;;;;;;;;;;7.10;99.90;;;;;;5088471;28;19999;-32
2024/01/30 06:23:15;;;;;;;;;;;7.10;99.90;;;;;;5093160;28;19919;-34
2024/01/30 06:25:41;;;;;;;;;;;7.10;99.90;;;;;;5109634;28;19919;-33
2024/01/30 06:28:08;;;;;;;;;;;7.10;99.90;;;;;;5113064;28;19923;-34
2024/01/30 06:30:35;;;;;;;;;;;7.10;99.90;;;;;;5095548;28;19923;-32
2024/01/30 06:33:01;;;;;;;;;;;7.10;99.90;;;;;;5114029;28;19920;-34
2024/01/30 06:35:29;;;;;;;;;;;7.10;99.90;;;;;;5112029;28;19920;-32
2024/01/30 06:37:55;;;;;;;;;;;7.10;99.90;;;;;;5086145;28;19924;-33
2024/01/30 06:40:23;;;;;;;;;;;7.10;99.90;;;;;;5075738;28;20375;-33
2024/01/30 06:42:50;;;;;;;;;;;7.10;99.90;;;;;;5094908;28;19945;-33
2024/01/30 06:45:17;;;;;;;;;;;7.10;99.90;;;;;;5090520;28;20440;-32
2024/01/30 06:47:44;;;;;;;;;;;7.10;99.90;;;;;;5095623;28;19972;-32
2024/01/30 06:50:10;;;;;;;;;;;7.20;99.90;;;;;;5092613;28;19920;-33
2024/01/30 06:52:37;;;;;;;;;;;7.10;99.90;;;;;;5112101;28;19928;-33
2024/01/30 06:55:04;;;;;;;;;;;7.20;99.90;;;;;;5088594;28;20359;-33
2024/01/30 06:57:32;;;;;;;;;;;7.20;99.90;;;;;;5093889;28;19920;-32
2024/01/30 06:59:58;;;;;;;;;;;7.20;99.90;;;;;;5090745;28;20363;-33
2024/01/30 07:02:25;;;;;;;;;;;7.20;99.90;;;;;;5102663;28;20375;-33
2024/01/30 07:04:52;;;;;;;;;;;7.20;99.90;;;;;;5085683;28;20320;-34
2024/01/30 07:07:18;;;;;;;;;;;7.20;99.90;;;;;;5084734;28;19986;-33
2024/01/30 07:09:45;;;;;;;;;;;7.30;99.90;;;;;;5094362;28;20150;-33
2024/01/30 07:12:12;;;;;;;;;;;7.30;99.90;;;;;;5094330;28;19920;-32
2024/01/30 07:14:40;;;;;;;;;;;7.30;99.90;;;;;;5109492;28;19924;-33
2024/01/30 07:17:07;;;;;;;;;;;7.30;99.90;;;;;;5094153;28;19973;-31
2024/01/30 07:19:34;;;;;;;;;;;7.40;99.90;;;;;;5112384;28;20327;-32
2024/01/30 07:22:01;;;;;;;;;;;7.40;99.90;;;;;;5093606;28;19959;-31
2024/01/30 07:24:27;;;;;;;;;;;7.40;99.90;;;;;;5086512;28;19927;-31
2024/01/30 07:26:54;;;;;;;;;;;7.40;99.90;;;;;;5093758;28;19920;-32
2024/01/30 07:29:21;;;;;;;;;;;7.40;99.90;;;;;;5110628;28;20173;-33
2024/01/30 07:31:49;;;;;;;;;;;7.40;99.90;;;;;;5077560;28;19927;-31
2024/01/30 07:34:16;;;;;;;;;;;7.50;99.90;;;;;;5075477;28;19970;-31
2024/01/30 07:36:43;;;;;;;;;;;7.40;99.90;;;;;;5086980;28;19920;-32
2024/01/30 07:39:10;;;;;;;;;;;7.50;99.90;;;;;;5079825;28;19927;-31
2024/01/30 07:41:37;;;;;;;;;;;7.50;99.90;;;;;;5089445;28;19920;-32
2024/01/30 07:44:03;;;;;;;;;;;7.50;99.90;;;;;;5110568;28;19920;-32
2024/01/30 07:46:30;;;;;;;;;;;7.50;99.90;;;;;;5112069;28;19924;-32
2024/01/30 07:48:58;;;;;;;;;;;7.50;99.90;;;;;;5076366;28;19920;-33
2024/01/30 07:51:25;;;;;;;;;;;7.60;99.90;;;;;;5103071;28;19920;-31
2024/01/30 07:53:57;;;;;;;;;;;7.60;99.90;;;;;;5110465;28;20004;-31
2024/01/30 07:56:23;;;;;;;;;;;7.60;99.90;;;;;;5092605;28;19923;-33
2024/01/30 07:58:50;;;;;;;;;;;7.60;99.90;;;;;;5093205;28;19927;-31
2024/01/30 08:01:17;;;;;;;;;;;7.60;99.90;;;;;;5092623;28;19928;-32
2024/01/30 08:03:44;;;;;;;;;;;7.60;99.90;;;;;;5094462;28;19920;-32
2024/01/30 08:06:12;;;;;;;;;;;7.60;99.90;;;;;;5096772;28;19920;-33
2024/01/30 08:08:38;;;;;;;;;;;7.60;99.90;;;;;;5096714;28;19924;-32
2024/01/30 08:11:05;;;;;;;;;;;7.70;99.90;;;;;;5115648;28;20032;-31
2024/01/30 08:13:32;;;;;;;;;;;7.70;99.90;;;;;;5114520;28;19926;-32
2024/01/30 08:15:58;;;;;;;;;;;7.70;99.90;;;;;;5082071;28;19923;-31
2024/01/30 08:18:25;;;;;;;;;;;7.80;99.90;;;;;;5104799;28;20337;-33
2024/01/30 08:20:52;;;;;;;;;;;7.80;99.90;;;;;;5114497;28;20267;-31
2024/01/30 08:23:20;;;;;;;;;;;7.80;99.90;;;;;;5097933;28;20252;-31
2024/01/30 08:25:46;;;;;;;;;;;7.90;99.90;;;;;;5096543;28;19924;-32
2024/01/30 08:28:13;;;;;;;;;;;7.90;99.90;;;;;;5082094;28;19961;-32
2024/01/30 08:30:40;;;;;;;;;;;8.00;99.90;;;;;;5086853;28;19931;-32
2024/01/30 08:33:06;;;;;;;;;;;8.00;99.90;;;;;;5114760;28;20279;-31
2024/01/30 08:35:33;;;;;;;;;;;8.10;99.90;;;;;;5096742;28;19977;-33
2024/01/30 08:38:00;;;;;;;;;;;8.10;99.90;;;;;;5104571;28;20478;-33
2024/01/30 08:40:28;;;;;;;;;;;8.20;99.90;;;;;;5092314;28;19927;-32
2024/01/30 08:42:55;;;;;;;;;;;8.20;99.90;;;;;;5113883;28;19920;-33
2024/01/30 08:45:22;;;;;;;;;;;8.20;99.90;;;;;;5090976;28;19924;-33
2024/01/30 08:47:48;;;;;;;;;;;8.30;99.90;;;;;;5077263;28;19920;-32
2024/01/30 08:50:15;;;;;;;;;;;8.30;99.90;;;;;;5097180;28;20374;-32
2024/01/30 08:52:42;;;;;;;;;;;8.30;99.90;;;;;;5095916;28;19920;-31
2024/01/30 08:55:09;;;;;;;;;;;8.30;99.90;;;;;;5084947;28;19920;-33
2024/01/30 08:57:37;;;;;;;;;;;8.30;99.90;;;;;;5101193;28;19923;-33
2024/01/30 09:00:06;;;;;;;;;;;8.30;99.90;;;;;;5084480;28;19975;-32
2024/01/30 09:02:33;;;;;;;;;;;8.40;99.90;;;;;;5096815;28;20432;-33
2024/01/30 09:04:59;;;;;;;;;;;8.40;99.90;;;;;;5113148;28;20006;-32
2024/01/30 09:07:26;;;;;;;;;;;8.40;99.90;;;;;;5092869;28;19923;-33
2024/01/30 09:09:53;;;;;;;;;;;8.50;99.90;;;;;;5109157;28;19931;-32
2024/01/30 09:12:19;;;;;;;;;;;8.50;99.90;;;;;;5088992;28;19973;-32
2024/01/30 09:14:47;;;;;;;;;;;8.50;99.90;;;;;;5093579;28;19936;-32
2024/01/30 09:17:14;;;;;;;;;;;8.50;99.90;;;;;;5106442;28;19934;-33
2024/01/30 09:19:41;;;;;;;;;;;8.50;99.90;;;;;;5109103;28;19926;-32
2024/01/30 09:22:07;;;;;;;;;;;8.60;99.90;;;;;;5089064;28;19920;-32
2024/01/30 09:24:34;;;;;;;;;;;8.60;99.90;;;;;;5094471;28;19924;-32
2024/01/30 09:27:01;;;;;;;;;;;8.60;99.90;;;;;;5092502;28;19985;-33
2024/01/30 09:29:27;;;;;;;;;;;8.70;99.90;;;;;;5095037;28;19920;-32
2024/01/30 09:31:56;;;;;;;;;;;8.70;99.90;;;;;;5110793;28;19920;-33
2024/01/30 09:34:22;;;;;;;;;;;8.70;99.90;;;;;;5087357;28;19982;-32
2024/01/30 09:36:49;;;;;;;;;;;8.70;99.90;;;;;;5102343;28;19985;-33
2024/01/30 09:39:16;;;;;;;;;;;8.70;99.90;;;;;;5091018;28;19977;-32
2024/01/30 09:41:45;;;;;;;;;;;8.80;99.90;;;;;;5094715;28;19988;-31
2024/01/30 09:44:12;;;;;;;;;;;8.80;99.90;;;;;;5094389;28;19924;-33
2024/01/30 09:46:38;;;;;;;;;;;8.90;99.90;;;;;;5094782;28;19920;-30
2024/01/30 09:49:06;;;;;;;;;;;8.90;99.90;;;;;;5090334;28;19976;-31
2024/01/30 09:51:33;;;;;;;;;;;8.90;99.90;;;;;;5088862;28;19924;-33
2024/01/30 09:54:00;;;;;;;;;;;9.00;99.90;;;;;;5109957;28;19923;-32
2024/01/30 09:56:26;;;;;;;;;;;9.10;99.90;;;;;;5093324;28;19927;-32
2024/01/30 09:58:53;;;;;;;;;;;9.10;99.90;;;;;;5112572;28;20317;-32
2024/01/30 10:01:20;;;;;;;;;;;9.20;99.90;;;;;;5103542;28;19920;-33
2024/01/30 10:03:46;;;;;;;;;;;9.30;99.90;;;;;;5092587;28;19972;-31
2024/01/30 10:06:14;;;;;;;;;;;9.40;99.90;;;;;;5110881;28;19985;-33
2024/01/30 10:08:41;;;;;;;;;;;9.30;99.90;;;;;;5093470;28;19984;-32
2024/01/30 10:11:07;;;;;;;;;;;9.40;99.90;;;;;;5112012;28;20400;-32
2024/01/30 10:13:34;;;;;;;;;;;9.40;99.90;;;;;;5108160;27;19923;-32
2024/01/30 10:16:02;;;;;;;;;;;9.40;99.90;;;;;;5087341;28;20398;-32
2024/01/30 10:18:29;;;;;;;;;;;9.50;99.90;;;;;;5090937;28;20378;-32
2024/01/30 10:20:56;;;;;;;;;;;9.50;99.90;;;;;;5094868;28;19920;-32
2024/01/30 10:23:24;;;;;;;;;;;9.60;99.90;;;;;;5111781;28;19920;-33
2024/01/30 10:25:51;;;;;;;;;;;9.60;99.90;;;;;;5084150;28;20006;-32
2024/01/30 10:28:18;;;;;;;;;;;9.70;99.90;;;;;;5106755;28;19920;-32
2024/01/30 10:30:45;;;;;;;;;;;9.80;99.90;;;;;;5109319;28;19920;-33
2024/01/30 10:33:11;;;;;;;;;;;9.80;99.90;;;;;;5092723;28;19936;-34
2024/01/30 10:35:38;;;;;;;;;;;9.90;99.90;;;;;;5104492;28;20279;-32
2024/01/30 10:38:05;;;;;;;;;;;9.90;99.90;;;;;;5098569;28;19920;-33
2024/01/30 10:40:33;;;;;;;;;;;10.00;99.90;;;;;;5094387;28;19919;-33
2024/01/30 10:42:59;;;;;;;;;;;10.00;99.90;;;;;;5092026;28;19984;-33
2024/01/30 10:45:27;;;;;;;;;;;10.00;99.90;;;;;;5093266;28;19923;-32
2024/01/30 10:47:54;;;;;;;;;;;10.00;99.90;;;;;;5110108;28;19942;-33
2024/01/30 10:50:21;;;;;;;;;;;10.00;99.90;;;;;;5100491;28;19974;-33
2024/01/30 10:52:47;;;;;;;;;;;10.00;99.90;;;;;;5089351;28;19975;-34
2024/01/30 10:55:14;;;;;;;;;;;10.00;99.90;;;;;;5091255;28;19920;-33
2024/01/30 10:57:42;;;;;;;;;;;10.00;99.90;;;;;;5092769;28;19920;-33
2024/01/30 11:00:10;;;;;;;;;;;10.10;99.90;;;;;;5108544;28;19919;-33
2024/01/30 11:02:37;;;;;;;;;;;10.00;99.90;;;;;;5111027;28;19928;-32
2024/01/30 11:05:05;;;;;;;;;;;10.10;99.90;;;;;;5090975;28;19920;-33
2024/01/30 11:07:31;;;;;;;;;;;10.10;99.90;;;;;;5093242;28;19965;-34
2024/01/30 11:10:01;;;;;;;;;;;10.10;99.90;;;;;;5091689;28;19920;-34
2024/01/30 11:12:28;;;;;;;;;;;10.10;99.90;;;;;;5110481;28;19920;-32
2024/01/30 11:15:06;;;;;;;;;;;10.20;99.90;;;;;;5091286;28;20043;-33
2024/01/30 11:17:42;;;;;;;;;;;10.20;99.90;;;;;;5109896;28;19973;-34
2024/01/30 11:20:11;;;;;;;;;;;10.20;99.90;;;;;;5111754;28;19920;-33
2024/01/30 11:22:38;;;;;;;;;;;10.30;99.90;;;;;;5107982;28;19924;-32
2024/01/30 11:25:05;;;;;;;;;;;10.30;99.90;;;;;;5084544;28;19920;-30
2024/01/30 11:27:32;;;;;;;;;;;10.30;99.90;;;;;;5102976;28;19972;-33
2024/01/30 11:30:01;;;;;;;;;;;10.30;99.90;;;;;;5090789;28;19920;-31
2024/01/30 11:32:31;;;;;;;;;;;10.30;99.90;;;;;;5099570;28;20507;-32
2024/01/30 11:34:58;;;;;;;;;;;10.40;99.90;;;;;;5089145;28;19973;-32
2024/01/30 11:37:25;;;;;;;;;;;10.40;99.90;;;;;;5088991;28;20010;-32
2024/01/30 11:39:52;;;;;;;;;;;10.40;99.90;;;;;;5090340;28;19924;-32
2024/01/30 11:42:19;;;;;;;;;;;10.50;99.90;;;;;;5084589;28;19926;-33
2024/01/30 11:44:47;;;;;;;;;;;10.50;99.90;;;;;;5106873;28;20365;-32
2024/01/30 11:47:14;;;;;;;;;;;10.60;99.90;;;;;;5092529;28;19969;-32
2024/01/30 11:49:42;;;;;;;;;;;10.60;99.90;;;;;;5091605;28;20363;-31
2024/01/30 11:52:09;;;;;;;;;;;10.70;99.90;;;;;;5091749;28;19978;-32
2024/01/30 11:54:35;;;;;;;;;;;10.70;99.90;;;;;;5089102;28;19966;-32
2024/01/30 11:57:05;;;;;;;;;;;10.70;99.90;;;;;;5097121;28;19965;-33
2024/01/30 11:59:32;;;;;;;;;;;10.70;99.90;;;;;;5091846;28;19920;-33
2024/01/30 12:01:59;;;;;;;;;;;10.70;99.90;;;;;;5088788;28;19920;-32
2024/01/30 12:04:28;;;;;;;;;;;10.80;99.90;;;;;;5110383;28;20448;-32
2024/01/30 12:06:56;;;;;;;;;;;10.80;99.90;;;;;;5092496;28;19920;-33
2024/01/30 12:09:22;;;;;;;;;;;10.80;99.90;;;;;;5111446;28;20009;-33
2024/01/30 12:11:49;;;;;;;;;;;10.80;99.90;;;;;;5075404;28;19924;-33
2024/01/30 12:14:16;;;;;;;;;;;10.80;99.90;;;;;;5107059;28;19920;-32
2024/01/30 12:16:43;;;;;;;;;;;10.70;99.90;;;;;;5085726;28;19969;-33
2024/01/30 12:19:09;;;;;;;;;;;10.70;99.90;;;;;;5089582;28;20605;-33
2024/01/30 12:21:36;;;;;;;;;;;10.60;99.90;;;;;;5088679;28;20424;-31
2024/01/30 12:24:07;;;;;;;;;;;10.60;99.90;;;;;;5104399;28;20440;-32
2024/01/30 12:26:33;;;;;;;;;;;10.50;99.90;;;;;;5106691;28;19927;-32
2024/01/30 12:29:01;;;;;;;;;;;10.50;99.90;;;;;;5110020;28;19920;-32
2024/01/30 12:31:28;;;;;;;;;;;10.50;99.90;;;;;;5109997;28;19961;-32
2024/01/30 12:33:54;;;;;;;;;;;10.50;99.90;;;;;;5110491;28;19926;-31
2024/01/30 12:36:21;;;;;;;;;;;10.40;99.90;;;;;;5090864;28;19923;-32
2024/01/30 12:38:48;;;;;;;;;;;10.40;99.90;;;;;;5107464;28;20264;-32
2024/01/30 12:41:16;;;;;;;;;;;10.40;99.90;;;;;;5106019;28;19973;-32
2024/01/30 12:43:43;;;;;;;;;;;10.40;99.90;;;;;;5108052;28;19989;-31
2024/01/30 12:46:10;;;;;;;;;;;10.30;99.90;;;;;;5107741;28;19942;-32
2024/01/30 12:48:37;;;;;;;;;;;10.30;99.90;;;;;;5085645;28;19926;-32
2024/01/30 12:51:04;;;;;;;;;;;10.30;99.90;;;;;;5105855;28;20197;-32
2024/01/30 12:53:30;;;;;;;;;;;10.30;99.90;;;;;;5078016;28;20408;-32
2024/01/30 12:55:57;;;;;;;;;;;10.20;99.90;;;;;;5080465;28;19932;-32
2024/01/30 12:58:25;;;;;;;;;;;10.20;99.90;;;;;;5093629;28;19969;-31
2024/01/30 13:00:52;;;;;;;;;;;10.20;99.90;;;;;;5094545;28;19920;-32
2024/01/30 13:03:19;;;;;;;;;;;10.20;99.90;;;;;;5111551;28;19977;-31
2024/01/30 13:05:45;;;;;;;;;;;10.20;99.90;;;;;;5098907;28;19928;-32
2024/01/30 13:08:12;;;;;;;;;;;10.20;99.90;;;;;;5089806;28;19992;-32
2024/01/30 13:10:38;;;;;;;;;;;10.10;99.90;;;;;;5103497;28;19985;-31
2024/01/30 13:13:05;;;;;;;;;;;10.10;99.90;;;;;;5101167;28;19965;-32
2024/01/30 13:15:33;;;;;;;;;;;10.10;99.90;;;;;;5094856;28;19985;-31
2024/01/30 13:18:00;;;;;;;;;;;10.00;99.90;;;;;;5095026;28;19920;-33
2024/01/30 13:20:26;;;;;;;;;;;10.00;99.90;;;;;;5090125;28;20371;-31
2024/01/30 13:22:53;;;;;;;;;;;10.00;99.90;;;;;;5089280;28;20448;-32
2024/01/30 13:25:20;;;;;;;;;;;10.00;99.90;;;;;;5093426;28;20744;-32
2024/01/30 13:27:46;;;;;;;;;;;10.00;99.90;;;;;;5105639;28;19981;-33
2024/01/30 13:30:13;;;;;;;;;;;9.90;99.90;;;;;;5110443;28;19974;-32
2024/01/30 13:32:44;;;;;;;;;;;9.90;99.90;;;;;;5093112;28;19927;-32
2024/01/30 13:35:10;;;;;;;;;;;9.90;99.90;;;;;;5089536;28;19926;-32
2024/01/30 13:37:37;;;;;;;;;;;9.80;99.90;;;;;;5111992;28;19928;-33
2024/01/30 13:40:06;;;;;;;;;;;9.80;99.90;;;;;;5094320;28;19972;-32
2024/01/30 13:42:33;;;;;;;;;;;9.80;99.90;;;;;;5109521;28;19964;-33
2024/01/30 13:45:00;;;;;;;;;;;9.80;99.90;;;;;;5102220;27;20344;-32
2024/01/30 13:47:26;;;;;;;;;;;9.80;99.90;;;;;;5082098;28;19927;-32
2024/01/30 13:49:54;;;;;;;;;;;9.80;99.90;;;;;;5112639;28;20328;-31
2024/01/30 13:52:21;;;;;;;;;;;9.90;99.90;;;;;;5093522;28;19920;-32
2024/01/30 13:54:47;;;;;;;;;;;9.90;99.90;;;;;;5107241;28;19920;-34
2024/01/30 13:57:14;;;;;;;;;;;9.90;99.90;;;;;;5092522;28;19920;-32
2024/01/30 13:59:41;;;;;;;;;;;9.90;99.90;;;;;;5088322;28;19965;-33
2024/01/30 14:02:10;;;;;;;;;;;9.90;99.90;;;;;;5094055;28;20019;-33
2024/01/30 14:04:37;;;;;;;;;;;9.90;99.90;;;;;;5113107;28;20378;-32
2024/01/30 14:07:05;;;;;;;;;;;9.90;99.90;;;;;;5094593;28;19938;-33
2024/01/30 14:09:32;;;;;;;;;;;9.90;99.90;;;;;;5092980;28;19931;-33
2024/01/30 14:11:59;;;;;;;;;;;9.90;99.90;;;;;;5098546;28;19971;-33
2024/01/30 14:14:26;;;;;;;;;;;9.90;99.90;;;;;;5095224;28;19924;-33
2024/01/30 14:16:52;;;;;;;;;;;9.90;99.90;;;;;;5092095;28;20359;-33
2024/01/30 14:19:19;;;;;;;;;;;9.90;99.90;;;;;;5112491;28;19997;-33
2024/01/30 14:21:46;;;;;;;;;;;9.90;99.90;;;;;;5083525;28;19921;-33
2024/01/30 14:24:14;;;;;;;;;;;9.90;99.90;;;;;;5094530;28;19923;-32
2024/01/30 14:26:40;;;;;;;;;;;9.90;99.90;;;;;;5093586;28;19920;-32